sensor_id;sensor_type;location;lat;lon;timestamp;P1;durP1;ratioP1;P2;durP2;ratioP2
72422;SDS011;60413;55.658;37.498;2023-02-01T00:01:53;25.98;;;9.07;;
72422;SDS011;60413;55.658;37.498;2023-02-01T00:04:26;25.02;;;9.65;;
72422;SDS011;60413;55.658;37.498;2023-02-01T00:06:57;23.20;;;8.75;;
72422;SDS011;60413;55.658;37.498;2023-02-01T00:09:26;24.38;;;9.27;;
72422;SDS011;60413;55.658;37.498;2023-02-01T00:11:54;21.65;;;7.65;;
72422;SDS011;60413;55.658;37.498;2023-02-01T00:14:25;25.30;;;10.27;;
72422;SDS011;60413;55.658;37.498;2023-02-01T00:35:06;26.40;;;10.07;;
72422;SDS011;60413;55.658;37.498;2023-02-01T00:37:34;23.10;;;8.35;;
72422;SDS011;60413;55.658;37.498;2023-02-01T00:40:06;24.40;;;9.55;;
72422;SDS011;60413;55.658;37.498;2023-02-01T00:42:41;20.45;;;7.15;;
72422;SDS011;60413;55.658;37.498;2023-02-01T00:45:17;29.10;;;8.88;;
72422;SDS011;60413;55.658;37.498;2023-02-01T00:47:48;20.23;;;8.65;;
72422;SDS011;60413;55.658;37.498;2023-02-01T00:55:50;20.05;;;6.85;;
72422;SDS011;60413;55.658;37.498;2023-02-01T00:58:16;22.52;;;9.23;;
72422;SDS011;60413;55.658;37.498;2023-02-01T01:00:42;22.17;;;9.05;;
72422;SDS011;60413;55.658;37.498;2023-02-01T01:03:08;20.05;;;7.75;;
72422;SDS011;60413;55.658;37.498;2023-02-01T01:05:48;25.80;;;8.50;;
72422;SDS011;60413;55.658;37.498;2023-02-01T01:08:15;20.90;;;8.45;;
72422;SDS011;60413;55.658;37.498;2023-02-01T01:10:42;24.98;;;8.23;;
72422;SDS011;60413;55.658;37.498;2023-02-01T01:13:08;25.35;;;10.55;;
72422;SDS011;60413;55.658;37.498;2023-02-01T01:15:38;22.77;;;8.52;;
72422;SDS011;60413;55.658;37.498;2023-02-01T01:18:05;20.67;;;7.70;;
72422;SDS011;60413;55.658;37.498;2023-02-01T01:20:33;15.43;;;7.03;;
72422;SDS011;60413;55.658;37.498;2023-02-01T01:25:38;24.23;;;9.52;;
72422;SDS011;60413;55.658;37.498;2023-02-01T01:28:05;25.20;;;9.35;;
72422;SDS011;60413;55.658;37.498;2023-02-01T01:30:31;24.00;;;7.88;;
72422;SDS011;60413;55.658;37.498;2023-02-01T01:32:59;23.90;;;9.38;;
72422;SDS011;60413;55.658;37.498;2023-02-01T01:35:25;20.85;;;8.65;;
72422;SDS011;60413;55.658;37.498;2023-02-01T01:37:50;23.25;;;8.60;;
72422;SDS011;60413;55.658;37.498;2023-02-01T01:40:16;22.95;;;9.40;;
72422;SDS011;60413;55.658;37.498;2023-02-01T01:42:43;20.65;;;7.10;;
72422;SDS011;60413;55.658;37.498;2023-02-01T01:45:30;19.98;;;8.00;;
72422;SDS011;60413;55.658;37.498;2023-02-01T01:48:02;24.02;;;8.35;;
72422;SDS011;60413;55.658;37.498;2023-02-01T01:50:37;22.48;;;9.60;;
72422;SDS011;60413;55.658;37.498;2023-02-01T01:53:08;20.38;;;7.82;;
72422;SDS011;60413;55.658;37.498;2023-02-01T01:55:39;25.58;;;9.00;;
72422;SDS011;60413;55.658;37.498;2023-02-01T01:58:12;23.80;;;8.75;;
72422;SDS011;60413;55.658;37.498;2023-02-01T02:00:43;23.10;;;8.98;;
72422;SDS011;60413;55.658;37.498;2023-02-01T02:03:15;19.67;;;7.80;;
72422;SDS011;60413;55.658;37.498;2023-02-01T02:05:49;21.20;;;8.82;;
72422;SDS011;60413;55.658;37.498;2023-02-01T02:08:18;27.00;;;10.15;;
72422;SDS011;60413;55.658;37.498;2023-02-01T02:10:48;25.98;;;9.13;;
72422;SDS011;60413;55.658;37.498;2023-02-01T02:13:34;25.00;;;9.55;;
72422;SDS011;60413;55.658;37.498;2023-02-01T02:34:14;28.45;;;9.27;;
72422;SDS011;60413;55.658;37.498;2023-02-01T02:41:54;22.95;;;8.80;;
72422;SDS011;60413;55.658;37.498;2023-02-01T02:50:58;25.50;;;10.32;;
72422;SDS011;60413;55.658;37.498;2023-02-01T02:54:01;24.90;;;7.43;;
72422;SDS011;60413;55.658;37.498;2023-02-01T02:56:51;28.38;;;10.65;;
72422;SDS011;60413;55.658;37.498;2023-02-01T02:59:39;26.05;;;10.02;;
72422;SDS011;60413;55.658;37.498;2023-02-01T03:02:27;29.00;;;9.90;;
72422;SDS011;60413;55.658;37.498;2023-02-01T03:05:12;26.17;;;9.90;;
72422;SDS011;60413;55.658;37.498;2023-02-01T03:13:28;22.55;;;7.88;;
72422;SDS011;60413;55.658;37.498;2023-02-01T03:19:11;21.70;;;9.07;;
72422;SDS011;60413;55.658;37.498;2023-02-01T03:21:48;27.25;;;10.63;;
72422;SDS011;60413;55.658;37.498;2023-02-01T03:24:25;34.30;;;9.68;;
72422;SDS011;60413;55.658;37.498;2023-02-01T03:30:02;23.17;;;8.70;;
72422;SDS011;60413;55.658;37.498;2023-02-01T03:32:35;25.85;;;10.52;;
72422;SDS011;60413;55.658;37.498;2023-02-01T03:35:21;24.98;;;8.80;;
72422;SDS011;60413;55.658;37.498;2023-02-01T03:38:40;25.60;;;9.17;;
72422;SDS011;60413;55.658;37.498;2023-02-01T03:40:51;32.33;;;10.88;;
72422;SDS011;60413;55.658;37.498;2023-02-01T03:43:52;28.05;;;10.63;;
72422;SDS011;60413;55.658;37.498;2023-02-01T03:46:30;27.15;;;10.60;;
72422;SDS011;60413;55.658;37.498;2023-02-01T03:49:03;30.75;;;9.98;;
72422;SDS011;60413;55.658;37.498;2023-02-01T03:51:35;25.67;;;9.68;;
72422;SDS011;60413;55.658;37.498;2023-02-01T03:54:05;27.13;;;9.30;;
72422;SDS011;60413;55.658;37.498;2023-02-01T03:56:35;32.03;;;10.77;;
72422;SDS011;60413;55.658;37.498;2023-02-01T03:59:03;30.38;;;11.00;;
72422;SDS011;60413;55.658;37.498;2023-02-01T04:01:33;27.70;;;9.90;;
72422;SDS011;60413;55.658;37.498;2023-02-01T04:04:00;27.75;;;10.40;;
72422;SDS011;60413;55.658;37.498;2023-02-01T04:06:26;26.83;;;10.23;;
72422;SDS011;60413;55.658;37.498;2023-02-01T04:08:56;42.83;;;14.40;;
72422;SDS011;60413;55.658;37.498;2023-02-01T04:11:22;28.00;;;11.55;;
72422;SDS011;60413;55.658;37.498;2023-02-01T04:13:48;30.77;;;11.27;;
72422;SDS011;60413;55.658;37.498;2023-02-01T04:16:24;31.20;;;11.85;;
72422;SDS011;60413;55.658;37.498;2023-02-01T04:18:50;35.15;;;11.75;;
72422;SDS011;60413;55.658;37.498;2023-02-01T04:21:16;34.90;;;11.63;;
72422;SDS011;60413;55.658;37.498;2023-02-01T04:23:42;35.58;;;10.32;;
72422;SDS011;60413;55.658;37.498;2023-02-01T04:26:08;28.35;;;10.20;;
72422;SDS011;60413;55.658;37.498;2023-02-01T04:28:34;37.40;;;11.45;;
72422;SDS011;60413;55.658;37.498;2023-02-01T04:31:04;32.13;;;10.98;;
72422;SDS011;60413;55.658;37.498;2023-02-01T04:33:30;30.95;;;11.07;;
72422;SDS011;60413;55.658;37.498;2023-02-01T04:35:57;30.73;;;11.38;;
72422;SDS011;60413;55.658;37.498;2023-02-01T04:38:23;33.90;;;11.00;;
72422;SDS011;60413;55.658;37.498;2023-02-01T04:40:49;36.25;;;11.95;;
72422;SDS011;60413;55.658;37.498;2023-02-01T04:43:15;31.65;;;11.07;;
72422;SDS011;60413;55.658;37.498;2023-02-01T04:45:46;31.40;;;11.45;;
72422;SDS011;60413;55.658;37.498;2023-02-01T04:48:16;32.63;;;10.30;;
72422;SDS011;60413;55.658;37.498;2023-02-01T04:50:46;33.80;;;10.57;;
72422;SDS011;60413;55.658;37.498;2023-02-01T04:53:31;34.45;;;12.15;;
72422;SDS011;60413;55.658;37.498;2023-02-01T04:55:57;30.20;;;11.32;;
72422;SDS011;60413;55.658;37.498;2023-02-01T04:58:37;33.30;;;10.57;;
72422;SDS011;60413;55.658;37.498;2023-02-01T05:01:03;26.77;;;9.65;;
72422;SDS011;60413;55.658;37.498;2023-02-01T05:03:33;23.95;;;8.85;;
72422;SDS011;60413;55.658;37.498;2023-02-01T05:06:00;30.38;;;10.73;;
72422;SDS011;60413;55.658;37.498;2023-02-01T05:08:30;29.80;;;10.35;;
72422;SDS011;60413;55.658;37.498;2023-02-01T05:11:05;29.33;;;8.35;;
72422;SDS011;60413;55.658;37.498;2023-02-01T05:13:38;34.35;;;11.52;;
72422;SDS011;60413;55.658;37.498;2023-02-01T05:16:20;35.35;;;12.05;;
72422;SDS011;60413;55.658;37.498;2023-02-01T05:18:46;38.83;;;12.05;;
72422;SDS011;60413;55.658;37.498;2023-02-01T05:21:15;37.20;;;12.68;;
72422;SDS011;60413;55.658;37.498;2023-02-01T05:23:44;37.10;;;11.40;;
72422;SDS011;60413;55.658;37.498;2023-02-01T05:26:28;31.52;;;10.73;;
72422;SDS011;60413;55.658;37.498;2023-02-01T05:28:54;35.13;;;13.13;;
72422;SDS011;60413;55.658;37.498;2023-02-01T05:31:23;32.83;;;11.02;;
72422;SDS011;60413;55.658;37.498;2023-02-01T05:33:52;37.35;;;11.43;;
72422;SDS011;60413;55.658;37.498;2023-02-01T05:36:17;36.67;;;10.98;;
72422;SDS011;60413;55.658;37.498;2023-02-01T05:38:43;32.13;;;10.45;;
72422;SDS011;60413;55.658;37.498;2023-02-01T05:41:32;40.72;;;13.27;;
72422;SDS011;60413;55.658;37.498;2023-02-01T05:43:58;39.53;;;12.23;;
72422;SDS011;60413;55.658;37.498;2023-02-01T05:46:28;38.53;;;11.80;;
72422;SDS011;60413;55.658;37.498;2023-02-01T05:48:59;40.42;;;11.82;;
72422;SDS011;60413;55.658;37.498;2023-02-01T05:51:28;31.90;;;11.98;;
72422;SDS011;60413;55.658;37.498;2023-02-01T05:53:54;39.10;;;12.10;;
72422;SDS011;60413;55.658;37.498;2023-02-01T05:56:25;38.67;;;12.02;;
72422;SDS011;60413;55.658;37.498;2023-02-01T05:58:56;35.30;;;10.68;;
72422;SDS011;60413;55.658;37.498;2023-02-01T06:01:22;41.30;;;12.05;;
72422;SDS011;60413;55.658;37.498;2023-02-01T06:04:26;41.85;;;13.73;;
72422;SDS011;60413;55.658;37.498;2023-02-01T06:07:01;39.90;;;12.98;;
72422;SDS011;60413;55.658;37.498;2023-02-01T06:09:43;34.70;;;11.35;;
72422;SDS011;60413;55.658;37.498;2023-02-01T06:12:13;35.80;;;11.43;;
72422;SDS011;60413;55.658;37.498;2023-02-01T06:14:45;43.45;;;13.40;;
72422;SDS011;60413;55.658;37.498;2023-02-01T06:17:12;33.30;;;11.07;;
72422;SDS011;60413;55.658;37.498;2023-02-01T06:19:38;33.90;;;11.00;;
72422;SDS011;60413;55.658;37.498;2023-02-01T06:22:06;38.63;;;12.05;;
72422;SDS011;60413;55.658;37.498;2023-02-01T06:24:32;40.17;;;11.95;;
72422;SDS011;60413;55.658;37.498;2023-02-01T06:26:58;37.05;;;12.43;;
72422;SDS011;60413;55.658;37.498;2023-02-01T06:29:31;41.03;;;13.32;;
72422;SDS011;60413;55.658;37.498;2023-02-01T06:31:57;43.58;;;13.27;;
72422;SDS011;60413;55.658;37.498;2023-02-01T06:34:36;40.15;;;13.10;;
72422;SDS011;60413;55.658;37.498;2023-02-01T06:37:07;38.70;;;12.32;;
72422;SDS011;60413;55.658;37.498;2023-02-01T06:39:33;40.97;;;12.38;;
72422;SDS011;60413;55.658;37.498;2023-02-01T06:41:59;24.67;;;7.72;;
72422;SDS011;60413;55.658;37.498;2023-02-01T06:44:28;35.95;;;11.25;;
72422;SDS011;60413;55.658;37.498;2023-02-01T06:46:54;43.20;;;14.50;;
72422;SDS011;60413;55.658;37.498;2023-02-01T06:49:25;35.15;;;11.70;;
72422;SDS011;60413;55.658;37.498;2023-02-01T06:51:51;40.70;;;13.50;;
72422;SDS011;60413;55.658;37.498;2023-02-01T06:54:24;37.47;;;12.88;;
72422;SDS011;60413;55.658;37.498;2023-02-01T06:56:50;36.70;;;11.05;;
72422;SDS011;60413;55.658;37.498;2023-02-01T06:59:16;41.88;;;13.88;;
72422;SDS011;60413;55.658;37.498;2023-02-01T07:01:42;39.22;;;12.98;;
72422;SDS011;60413;55.658;37.498;2023-02-01T07:04:09;43.78;;;13.68;;
72422;SDS011;60413;55.658;37.498;2023-02-01T07:06:41;34.38;;;12.85;;
72422;SDS011;60413;55.658;37.498;2023-02-01T07:09:07;37.40;;;11.77;;
72422;SDS011;60413;55.658;37.498;2023-02-01T07:11:39;48.42;;;14.30;;
72422;SDS011;60413;55.658;37.498;2023-02-01T07:14:25;34.92;;;13.05;;
72422;SDS011;60413;55.658;37.498;2023-02-01T07:16:56;40.22;;;12.25;;
72422;SDS011;60413;55.658;37.498;2023-02-01T07:19:22;42.30;;;14.20;;
72422;SDS011;60413;55.658;37.498;2023-02-01T07:21:48;33.65;;;12.60;;
72422;SDS011;60413;55.658;37.498;2023-02-01T07:24:14;38.08;;;12.05;;
72422;SDS011;60413;55.658;37.498;2023-02-01T07:26:43;39.03;;;15.20;;
72422;SDS011;60413;55.658;37.498;2023-02-01T07:29:08;40.20;;;13.35;;
72422;SDS011;60413;55.658;37.498;2023-02-01T07:31:34;38.22;;;14.75;;
72422;SDS011;60413;55.658;37.498;2023-02-01T07:34:00;33.45;;;11.68;;
72422;SDS011;60413;55.658;37.498;2023-02-01T07:36:29;34.75;;;10.00;;
72422;SDS011;60413;55.658;37.498;2023-02-01T07:38:56;34.63;;;11.02;;
72422;SDS011;60413;55.658;37.498;2023-02-01T07:41:25;42.22;;;14.20;;
72422;SDS011;60413;55.658;37.498;2023-02-01T07:43:54;39.17;;;13.77;;
72422;SDS011;60413;55.658;37.498;2023-02-01T07:46:24;34.25;;;12.23;;
72422;SDS011;60413;55.658;37.498;2023-02-01T07:48:50;36.97;;;12.90;;
72422;SDS011;60413;55.658;37.498;2023-02-01T07:51:16;39.55;;;13.30;;
72422;SDS011;60413;55.658;37.498;2023-02-01T07:53:43;39.33;;;13.73;;
72422;SDS011;60413;55.658;37.498;2023-02-01T07:56:20;45.38;;;15.50;;
72422;SDS011;60413;55.658;37.498;2023-02-01T07:58:50;43.92;;;13.10;;
72422;SDS011;60413;55.658;37.498;2023-02-01T08:01:19;38.60;;;13.75;;
72422;SDS011;60413;55.658;37.498;2023-02-01T08:04:00;37.38;;;12.82;;
72422;SDS011;60413;55.658;37.498;2023-02-01T08:06:29;40.00;;;14.27;;
72422;SDS011;60413;55.658;37.498;2023-02-01T08:08:57;28.70;;;10.65;;
72422;SDS011;60413;55.658;37.498;2023-02-01T08:11:23;36.42;;;12.60;;
72422;SDS011;60413;55.658;37.498;2023-02-01T08:13:53;39.83;;;13.57;;
72422;SDS011;60413;55.658;37.498;2023-02-01T08:16:19;39.55;;;13.77;;
72422;SDS011;60413;55.658;37.498;2023-02-01T08:18:47;38.65;;;13.20;;
72422;SDS011;60413;55.658;37.498;2023-02-01T08:23:40;22.17;;;8.88;;
72422;SDS011;60413;55.658;37.498;2023-02-01T08:26:11;38.28;;;11.55;;
72422;SDS011;60413;55.658;37.498;2023-02-01T08:28:41;39.72;;;13.63;;
72422;SDS011;60413;55.658;37.498;2023-02-01T08:31:14;38.00;;;13.65;;
72422;SDS011;60413;55.658;37.498;2023-02-01T08:33:43;33.20;;;11.60;;
72422;SDS011;60413;55.658;37.498;2023-02-01T08:36:13;36.50;;;14.27;;
72422;SDS011;60413;55.658;37.498;2023-02-01T08:38:39;33.08;;;12.60;;
72422;SDS011;60413;55.658;37.498;2023-02-01T08:41:15;33.67;;;12.85;;
72422;SDS011;60413;55.658;37.498;2023-02-01T08:43:43;26.58;;;10.50;;
72422;SDS011;60413;55.658;37.498;2023-02-01T08:46:12;35.40;;;13.13;;
72422;SDS011;60413;55.658;37.498;2023-02-01T08:48:38;30.80;;;11.88;;
72422;SDS011;60413;55.658;37.498;2023-02-01T08:51:09;28.67;;;11.57;;
72422;SDS011;60413;55.658;37.498;2023-02-01T08:53:41;29.73;;;10.88;;
72422;SDS011;60413;55.658;37.498;2023-02-01T08:56:08;21.98;;;8.50;;
72422;SDS011;60413;55.658;37.498;2023-02-01T08:58:36;22.88;;;8.38;;
72422;SDS011;60413;55.658;37.498;2023-02-01T09:01:05;24.15;;;9.80;;
72422;SDS011;60413;55.658;37.498;2023-02-01T09:03:33;28.17;;;11.55;;
72422;SDS011;60413;55.658;37.498;2023-02-01T09:06:02;32.13;;;11.13;;
72422;SDS011;60413;55.658;37.498;2023-02-01T09:08:32;33.13;;;12.68;;
72422;SDS011;60413;55.658;37.498;2023-02-01T09:11:00;30.88;;;11.13;;
72422;SDS011;60413;55.658;37.498;2023-02-01T09:13:28;28.42;;;10.95;;
72422;SDS011;60413;55.658;37.498;2023-02-01T09:15:54;38.08;;;12.57;;
72422;SDS011;60413;55.658;37.498;2023-02-01T09:18:20;37.83;;;11.57;;
72422;SDS011;60413;55.658;37.498;2023-02-01T09:20:46;29.88;;;11.80;;
72422;SDS011;60413;55.658;37.498;2023-02-01T09:23:12;32.70;;;12.05;;
72422;SDS011;60413;55.658;37.498;2023-02-01T09:25:38;28.88;;;11.55;;
72422;SDS011;60413;55.658;37.498;2023-02-01T09:28:05;34.30;;;12.45;;
72422;SDS011;60413;55.658;37.498;2023-02-01T09:30:32;34.38;;;13.15;;
72422;SDS011;60413;55.658;37.498;2023-02-01T09:32:58;36.58;;;13.07;;
72422;SDS011;60413;55.658;37.498;2023-02-01T09:35:25;25.33;;;10.27;;
72422;SDS011;60413;55.658;37.498;2023-02-01T09:37:54;33.17;;;12.23;;
72422;SDS011;60413;55.658;37.498;2023-02-01T09:40:21;37.00;;;14.70;;
72422;SDS011;60413;55.658;37.498;2023-02-01T09:45:48;29.77;;;11.57;;
72422;SDS011;60413;55.658;37.498;2023-02-01T09:48:29;40.85;;;15.40;;
72422;SDS011;60413;55.658;37.498;2023-02-01T09:51:04;42.17;;;15.00;;
72422;SDS011;60413;55.658;37.498;2023-02-01T09:53:40;39.75;;;15.18;;
72422;SDS011;60413;55.658;37.498;2023-02-01T09:56:14;37.50;;;13.65;;
72422;SDS011;60413;55.658;37.498;2023-02-01T09:58:58;37.63;;;14.85;;
72422;SDS011;60413;55.658;37.498;2023-02-01T10:01:35;46.92;;;16.50;;
72422;SDS011;60413;55.658;37.498;2023-02-01T10:04:03;38.90;;;14.30;;
72422;SDS011;60413;55.658;37.498;2023-02-01T10:14:02;41.22;;;14.90;;
72422;SDS011;60413;55.658;37.498;2023-02-01T10:16:48;48.05;;;16.65;;
72422;SDS011;60413;55.658;37.498;2023-02-01T10:27:48;43.78;;;16.40;;
72422;SDS011;60413;55.658;37.498;2023-02-01T10:30:24;42.25;;;16.27;;
72422;SDS011;60413;55.658;37.498;2023-02-01T10:33:07;43.15;;;14.15;;
72422;SDS011;60413;55.658;37.498;2023-02-01T10:35:45;46.83;;;16.33;;
72422;SDS011;60413;55.658;37.498;2023-02-01T10:41:21;34.42;;;11.98;;
72422;SDS011;60413;55.658;37.498;2023-02-01T10:43:56;39.75;;;16.17;;
72422;SDS011;60413;55.658;37.498;2023-02-01T10:46:27;41.67;;;15.07;;
72422;SDS011;60413;55.658;37.498;2023-02-01T10:48:54;41.33;;;16.25;;
72422;SDS011;60413;55.658;37.498;2023-02-01T10:51:26;37.65;;;14.90;;
72422;SDS011;60413;55.658;37.498;2023-02-01T10:54:20;36.67;;;14.52;;
72422;SDS011;60413;55.658;37.498;2023-02-01T10:56:50;44.58;;;15.43;;
72422;SDS011;60413;55.658;37.498;2023-02-01T10:59:23;41.20;;;16.08;;
72422;SDS011;60413;55.658;37.498;2023-02-01T11:02:05;45.15;;;16.88;;
72422;SDS011;60413;55.658;37.498;2023-02-01T11:04:49;38.92;;;15.77;;
72422;SDS011;60413;55.658;37.498;2023-02-01T11:07:24;46.03;;;16.80;;
72422;SDS011;60413;55.658;37.498;2023-02-01T11:09:52;49.78;;;17.08;;
72422;SDS011;60413;55.658;37.498;2023-02-01T11:12:25;39.13;;;15.13;;
72422;SDS011;60413;55.658;37.498;2023-02-01T11:15:01;38.20;;;13.77;;
72422;SDS011;60413;55.658;37.498;2023-02-01T11:17:45;39.40;;;15.80;;
72422;SDS011;60413;55.658;37.498;2023-02-01T11:20:14;35.22;;;13.13;;
72422;SDS011;60413;55.658;37.498;2023-02-01T11:22:46;41.45;;;16.00;;
72422;SDS011;60413;55.658;37.498;2023-02-01T11:25:14;37.15;;;14.50;;
72422;SDS011;60413;55.658;37.498;2023-02-01T11:27:42;39.08;;;15.85;;
72422;SDS011;60413;55.658;37.498;2023-02-01T11:30:25;41.50;;;15.93;;
72422;SDS011;60413;55.658;37.498;2023-02-01T11:33:04;40.15;;;14.63;;
72422;SDS011;60413;55.658;37.498;2023-02-01T11:35:39;36.55;;;13.60;;
72422;SDS011;60413;55.658;37.498;2023-02-01T11:38:12;40.90;;;14.23;;
72422;SDS011;60413;55.658;37.498;2023-02-01T11:40:49;39.80;;;15.45;;
72422;SDS011;60413;55.658;37.498;2023-02-01T11:43:29;44.67;;;14.18;;
72422;SDS011;60413;55.658;37.498;2023-02-01T11:46:14;47.55;;;15.52;;
72422;SDS011;60413;55.658;37.498;2023-02-01T11:48:47;31.73;;;12.13;;
72422;SDS011;60413;55.658;37.498;2023-02-01T12:03:21;38.20;;;15.98;;
72422;SDS011;60413;55.658;37.498;2023-02-01T12:08:32;30.17;;;11.98;;
72422;SDS011;60413;55.658;37.498;2023-02-01T12:11:19;26.70;;;10.88;;
72422;SDS011;60413;55.658;37.498;2023-02-01T12:17:41;30.13;;;11.85;;
72422;SDS011;60413;55.658;37.498;2023-02-01T12:20:31;32.20;;;11.25;;
72422;SDS011;60413;55.658;37.498;2023-02-01T12:23:09;23.10;;;9.18;;
72422;SDS011;60413;55.658;37.498;2023-02-01T12:31:38;24.15;;;8.25;;
72422;SDS011;60413;55.658;37.498;2023-02-01T12:41:02;31.67;;;12.20;;
72422;SDS011;60413;55.658;37.498;2023-02-01T12:43:45;24.05;;;8.85;;
72422;SDS011;60413;55.658;37.498;2023-02-01T12:46:17;22.00;;;8.00;;
72422;SDS011;60413;55.658;37.498;2023-02-01T12:51:30;19.55;;;7.97;;
72422;SDS011;60413;55.658;37.498;2023-02-01T12:54:02;24.85;;;9.68;;
72422;SDS011;60413;55.658;37.498;2023-02-01T12:56:59;19.35;;;8.30;;
72422;SDS011;60413;55.658;37.498;2023-02-01T12:59:33;24.10;;;9.35;;
72422;SDS011;60413;55.658;37.498;2023-02-01T13:07:30;24.17;;;8.88;;
72422;SDS011;60413;55.658;37.498;2023-02-01T13:13:28;25.58;;;9.55;;
72422;SDS011;60413;55.658;37.498;2023-02-01T13:19:02;23.73;;;8.48;;
72422;SDS011;60413;55.658;37.498;2023-02-01T13:21:51;25.40;;;9.40;;
72422;SDS011;60413;55.658;37.498;2023-02-01T13:26:59;23.70;;;8.65;;
72422;SDS011;60413;55.658;37.498;2023-02-01T13:29:26;23.30;;;9.23;;
72422;SDS011;60413;55.658;37.498;2023-02-01T13:37:44;29.15;;;11.70;;
72422;SDS011;60413;55.658;37.498;2023-02-01T13:40:30;24.58;;;10.27;;
72422;SDS011;60413;55.658;37.498;2023-02-01T13:45:46;23.98;;;9.27;;
72422;SDS011;60413;55.658;37.498;2023-02-01T13:48:19;21.15;;;8.70;;
72422;SDS011;60413;55.658;37.498;2023-02-01T13:51:00;28.00;;;10.50;;
72422;SDS011;60413;55.658;37.498;2023-02-01T13:53:36;28.25;;;8.98;;
72422;SDS011;60413;55.658;37.498;2023-02-01T13:56:43;21.83;;;8.45;;
72422;SDS011;60413;55.658;37.498;2023-02-01T13:59:35;25.23;;;9.98;;
72422;SDS011;60413;55.658;37.498;2023-02-01T14:05:01;18.02;;;7.30;;
72422;SDS011;60413;55.658;37.498;2023-02-01T14:07:34;22.33;;;8.32;;
72422;SDS011;60413;55.658;37.498;2023-02-01T14:18:01;24.00;;;8.40;;
72422;SDS011;60413;55.658;37.498;2023-02-01T14:20:48;13.82;;;5.75;;
72422;SDS011;60413;55.658;37.498;2023-02-01T14:23:21;14.45;;;6.32;;
72422;SDS011;60413;55.658;37.498;2023-02-01T14:26:02;22.88;;;8.90;;
72422;SDS011;60413;55.658;37.498;2023-02-01T14:28:35;20.52;;;7.25;;
72422;SDS011;60413;55.658;37.498;2023-02-01T14:31:31;24.08;;;8.00;;
72422;SDS011;60413;55.658;37.498;2023-02-01T14:34:48;21.73;;;8.40;;
72422;SDS011;60413;55.658;37.498;2023-02-01T14:42:52;24.13;;;9.05;;
72422;SDS011;60413;55.658;37.498;2023-02-01T14:53:31;26.33;;;8.40;;
72422;SDS011;60413;55.658;37.498;2023-02-01T14:58:52;16.25;;;6.03;;
72422;SDS011;60413;55.658;37.498;2023-02-01T15:06:38;19.17;;;7.95;;
72422;SDS011;60413;55.658;37.498;2023-02-01T15:12:24;27.63;;;8.32;;
72422;SDS011;60413;55.658;37.498;2023-02-01T15:14:40;18.02;;;6.40;;
72422;SDS011;60413;55.658;37.498;2023-02-01T15:17:21;18.20;;;6.32;;
72422;SDS011;60413;55.658;37.498;2023-02-01T15:19:53;20.10;;;7.40;;
72422;SDS011;60413;55.658;37.498;2023-02-01T15:22:21;20.52;;;8.05;;
72422;SDS011;60413;55.658;37.498;2023-02-01T15:24:53;23.52;;;7.90;;
72422;SDS011;60413;55.658;37.498;2023-02-01T15:27:27;23.00;;;8.13;;
72422;SDS011;60413;55.658;37.498;2023-02-01T15:29:54;23.30;;;8.25;;
72422;SDS011;60413;55.658;37.498;2023-02-01T15:32:36;22.75;;;8.30;;
72422;SDS011;60413;55.658;37.498;2023-02-01T15:35:04;17.90;;;7.18;;
72422;SDS011;60413;55.658;37.498;2023-02-01T15:37:33;22.15;;;9.13;;
72422;SDS011;60413;55.658;37.498;2023-02-01T15:40:04;21.98;;;7.75;;
72422;SDS011;60413;55.658;37.498;2023-02-01T15:42:53;13.55;;;6.22;;
72422;SDS011;60413;55.658;37.498;2023-02-01T15:45:22;13.82;;;5.30;;
72422;SDS011;60413;55.658;37.498;2023-02-01T15:47:55;20.17;;;7.65;;
72422;SDS011;60413;55.658;37.498;2023-02-01T15:50:23;19.65;;;6.40;;
72422;SDS011;60413;55.658;37.498;2023-02-01T15:52:51;21.05;;;7.68;;
72422;SDS011;60413;55.658;37.498;2023-02-01T15:55:35;25.50;;;8.68;;
72422;SDS011;60413;55.658;37.498;2023-02-01T15:58:05;26.17;;;9.43;;
72422;SDS011;60413;55.658;37.498;2023-02-01T16:00:43;20.80;;;7.82;;
72422;SDS011;60413;55.658;37.498;2023-02-01T16:03:32;23.67;;;9.80;;
72422;SDS011;60413;55.658;37.498;2023-02-01T16:06:05;32.00;;;9.63;;
72422;SDS011;60413;55.658;37.498;2023-02-01T16:08:37;17.15;;;6.72;;
72422;SDS011;60413;55.658;37.498;2023-02-01T16:11:22;23.08;;;8.95;;
72422;SDS011;60413;55.658;37.498;2023-02-01T16:14:09;25.52;;;8.57;;
72422;SDS011;60413;55.658;37.498;2023-02-01T16:16:35;24.38;;;9.45;;
72422;SDS011;60413;55.658;37.498;2023-02-01T16:19:01;20.48;;;7.18;;
72422;SDS011;60413;55.658;37.498;2023-02-01T16:21:27;16.38;;;6.70;;
72422;SDS011;60413;55.658;37.498;2023-02-01T16:24:03;25.85;;;8.25;;
72422;SDS011;60413;55.658;37.498;2023-02-01T16:26:30;23.70;;;9.70;;
72422;SDS011;60413;55.658;37.498;2023-02-01T16:28:58;19.60;;;7.20;;
72422;SDS011;60413;55.658;37.498;2023-02-01T16:31:29;25.80;;;10.75;;
72422;SDS011;60413;55.658;37.498;2023-02-01T16:33:58;26.73;;;10.00;;
72422;SDS011;60413;55.658;37.498;2023-02-01T16:36:25;26.90;;;9.38;;
72422;SDS011;60413;55.658;37.498;2023-02-01T16:38:55;20.33;;;8.32;;
72422;SDS011;60413;55.658;37.498;2023-02-01T16:41:22;21.90;;;8.90;;
72422;SDS011;60413;55.658;37.498;2023-02-01T16:43:50;24.55;;;9.60;;
72422;SDS011;60413;55.658;37.498;2023-02-01T16:46:26;22.65;;;7.45;;
72422;SDS011;60413;55.658;37.498;2023-02-01T16:48:58;25.95;;;9.10;;
72422;SDS011;60413;55.658;37.498;2023-02-01T16:51:27;23.52;;;8.07;;
72422;SDS011;60413;55.658;37.498;2023-02-01T16:53:57;24.58;;;9.05;;
72422;SDS011;60413;55.658;37.498;2023-02-01T16:56:30;15.93;;;6.35;;
72422;SDS011;60413;55.658;37.498;2023-02-01T16:59:01;22.10;;;8.77;;
72422;SDS011;60413;55.658;37.498;2023-02-01T17:01:27;24.48;;;9.15;;
72422;SDS011;60413;55.658;37.498;2023-02-01T17:03:54;24.10;;;8.40;;
72422;SDS011;60413;55.658;37.498;2023-02-01T17:06:21;17.45;;;8.10;;
72422;SDS011;60413;55.658;37.498;2023-02-01T17:08:51;20.33;;;8.50;;
72422;SDS011;60413;55.658;37.498;2023-02-01T17:11:20;19.80;;;7.40;;
72422;SDS011;60413;55.658;37.498;2023-02-01T17:13:46;19.02;;;6.72;;
72422;SDS011;60413;55.658;37.498;2023-02-01T17:19:00;18.80;;;6.72;;
72422;SDS011;60413;55.658;37.498;2023-02-01T17:21:30;20.90;;;7.77;;
72422;SDS011;60413;55.658;37.498;2023-02-01T17:24:04;17.33;;;7.82;;
72422;SDS011;60413;55.658;37.498;2023-02-01T17:26:30;17.92;;;7.20;;
72422;SDS011;60413;55.658;37.498;2023-02-01T17:28:57;18.83;;;7.20;;
72422;SDS011;60413;55.658;37.498;2023-02-01T17:31:23;18.23;;;6.97;;
72422;SDS011;60413;55.658;37.498;2023-02-01T17:33:49;17.17;;;6.72;;
72422;SDS011;60413;55.658;37.498;2023-02-01T17:36:16;16.85;;;7.35;;
72422;SDS011;60413;55.658;37.498;2023-02-01T17:38:43;14.40;;;5.47;;
72422;SDS011;60413;55.658;37.498;2023-02-01T17:41:10;15.40;;;5.57;;
72422;SDS011;60413;55.658;37.498;2023-02-01T17:43:38;17.23;;;7.03;;
72422;SDS011;60413;55.658;37.498;2023-02-01T17:46:10;17.67;;;6.47;;
72422;SDS011;60413;55.658;37.498;2023-02-01T17:48:37;10.57;;;4.68;;
72422;SDS011;60413;55.658;37.498;2023-02-01T17:51:04;15.77;;;5.18;;